Main page
METAR-TAF:

METAR-TAF

Airports :

Wick Airport

Wick, Scotland

latitude: 58-27N, longitude: 003-05W, elevation: 39 m

Current weather observation

The report was made 37 minutes ago, at 06:20 UTC
Wind 9 kt from the West
Temperature 11°C
Humidity 82%
Pressure 1019 hPa
Visibility 10 km or more

METAR: EGPC 110620Z AUTO 28009KT 9999 FEW018/// BKN023/// 11/08 Q1019

Time: 07:57 (06:57 UTC)

Forecast

The report was made 4 hours and 59 minutes ago, at 01:58 UTC
Forecast valid from 11 at 03 UTC to 11 at 12 UTC
Wind 9 kt from the West
Visibility 10 km or more
Few clouds at a height of 2000 ft
Probability 30% :
Temporary
from 11 at 03 UTC to 11 at 12 UTC
Visibility: 8000 m
light rain showers

TAF: EGPC 110158Z 1103/1112 27009KT 9999 FEW020 PROB30 TEMPO 1103/1112 8000 -SHRA

Weather observations and forecasts of more than 4000 airports (METAR and TAF reports).

The available stations are represented by yellow and red dots on the map.

Hover mouse over dot to see the name of the station.

Then click to see weather observations and forecasts.

To change the map : click on the green buttons with a black cross to zoom in, on the green button with a dash to zoom out, or on the green arrows for adjacent maps.


METAR-TAF: